Time;durP1;ratioP1;P1;durP2;ratioP2;P2;SDS_P1;SDS_P2;PMS_P1;PMS_P2;Temp;Humidity;BMP_temperature;BMP_pressure;BME280_temperature;BME280_humidity;BME280_pressure;Samples;Min_cycle;Max_cycle;Signal;HPM_P1;HPM_P2
2023/07/06 00:00:00;;;;;;;2.80;2.10;;;;;;;25.99;40.95;98432.03;4918717;29;20043;-76
2023/07/06 00:02:26;;;;;;;6.20;4.25;;;;;;;26.00;40.98;98434.47;4902805;29;20035;-76
2023/07/06 00:04:52;;;;;;;22.67;16.98;;;;;;;26.00;41.05;98429.13;4886968;29;20043;-76
2023/07/06 00:07:21;;;;;;;20.92;15.55;;;;;;;25.96;41.03;98414.53;4918370;29;20504;-77
2023/07/06 00:09:50;;;;;;;23.63;15.63;;;;;;;25.93;41.29;98416.84;4903658;29;20067;-76
2023/07/06 00:12:17;;;;;;;14.20;10.65;;;;;;;25.92;41.52;98417.88;4918071;29;20136;-76
2023/07/06 00:14:43;;;;;;;15.13;10.57;;;;;;;25.89;41.68;98415.69;4902608;29;20499;-76
2023/07/06 00:17:12;;;;;;;16.48;9.70;;;;;;;25.90;41.66;98419.97;4918228;29;20035;-76
2023/07/06 00:19:39;;;;;;;6.78;4.85;;;;;;;25.85;41.67;98422.50;4917969;29;20118;-76
2023/07/06 00:22:04;;;;;;;9.43;5.60;;;;;;;25.76;42.20;98421.97;4918169;29;20051;-76
2023/07/06 00:24:30;;;;;;;8.15;3.80;;;;;;;25.75;42.05;98425.72;4918758;29;20154;-76
2023/07/06 00:26:56;;;;;;;4.35;3.40;;;;;;;25.72;42.12;98415.47;4919128;29;20031;-76
2023/07/06 00:29:22;;;;;;;4.10;2.65;;;;;;;25.74;41.87;98424.06;4934074;29;20027;-76
2023/07/06 00:32:04;;;;;;;6.43;2.40;;;;;;;25.67;41.95;98418.00;4902397;29;20403;-76
2023/07/06 00:34:34;;;;;;;3.50;2.25;;;;;;;25.61;42.35;98425.03;4920357;29;20038;-76
2023/07/06 00:37:02;;;;;;;4.53;2.20;;;;;;;25.60;42.32;98428.72;4934154;29;20534;-75
2023/07/06 00:39:27;;;;;;;;;;;;;;;25.60;42.63;98423.38;4903618;29;20047;-76
2023/07/06 00:41:53;;;;;;;10.23;2.13;;;;;;;25.52;42.83;98432.50;4917890;29;19919;-76
2023/07/06 00:44:57;;;;;;;4.22;2.40;;;;;;;25.52;42.83;98434.38;4934751;29;20038;-76
2023/07/06 00:47:27;;;;;;;3.08;2.20;;;;;;;25.50;42.88;98431.94;4918612;29;20134;-75
2023/07/06 00:49:53;;;;;;;3.78;2.50;;;;;;;25.51;43.24;98427.38;4918301;29;20042;-76
2023/07/06 00:52:18;;;;;;;4.03;2.50;;;;;;;25.49;43.33;98430.28;4902222;29;20475;-76
2023/07/06 00:54:46;;;;;;;4.20;2.33;;;;;;;25.48;43.29;98428.66;4902302;29;20035;-75
2023/07/06 00:57:12;;;;;;;3.75;2.20;;;;;;;25.46;43.41;98428.06;4918367;29;20044;-76
2023/07/06 00:59:40;;;;;;;4.53;2.60;;;;;;;25.48;43.32;98433.19;4918050;29;20032;-76
2023/07/06 01:02:08;;;;;;;4.82;2.42;;;;;;;25.43;43.55;98425.84;4887169;29;20035;-75
2023/07/06 01:04:33;;;;;;;3.83;2.53;;;;;;;25.43;43.84;98431.19;4918057;29;20095;-75
2023/07/06 01:06:59;;;;;;;4.70;2.47;;;;;;;25.45;43.96;98431.78;4918091;29;20044;-76
2023/07/06 01:09:26;;;;;;;7.13;2.70;;;;;;;25.42;44.30;98426.88;4902434;29;20043;-76
2023/07/06 01:11:55;;;;;;;4.15;2.30;;;;;;;25.46;44.31;98426.22;4902247;29;20023;-75
2023/07/06 01:14:20;;;;;;;3.95;2.45;;;;;;;25.45;44.50;98418.41;4887784;29;20127;-76
2023/07/06 01:16:59;;;;;;;6.78;2.83;;;;;;;25.50;44.48;98423.09;4901997;29;20114;-76
2023/07/06 01:19:54;;;;;;;5.82;2.60;;;;;;;25.46;44.61;98418.19;4919314;29;20040;-76
2023/07/06 01:23:07;;;;;;;5.47;2.80;;;;;;;25.37;44.97;98422.19;4903745;29;20412;-76
2023/07/06 01:25:35;;;;;;;5.72;3.00;;;;;;;25.35;45.28;98421.59;4857547;29;20132;-76
2023/07/06 01:28:13;;;;;;;5.85;3.10;;;;;;;25.35;45.51;98420.75;4857473;29;20488;-76
2023/07/06 01:30:55;;;;;;;5.70;2.92;;;;;;;25.30;45.79;98426.75;4858292;29;20057;-76
2023/07/06 01:33:32;;;;;;;5.10;3.13;;;;;;;25.20;46.25;98421.91;4861281;29;20140;-76
2023/07/06 01:36:06;;;;;;;5.90;3.20;;;;;;;25.11;46.59;98420.53;4860959;29;20041;-76
2023/07/06 01:38:32;;;;;;;7.20;3.25;;;;;;;25.14;46.56;98430.78;4860938;29;20042;-76
2023/07/06 01:40:59;;;;;;;5.05;3.40;;;;;;;25.19;46.62;98438.13;4861012;29;20413;-75
2023/07/06 01:43:26;;;;;;;4.85;3.28;;;;;;;25.23;46.65;98436.69;4860621;29;20073;-76
2023/07/06 01:45:52;;;;;;;4.82;3.38;;;;;;;25.29;46.76;98435.84;4860462;29;20057;-76
2023/07/06 01:48:17;;;;;;;6.55;3.70;;;;;;;25.32;46.88;98435.41;4860584;29;20568;-76
2023/07/06 01:51:01;;;;;;;5.43;3.40;;;;;;;25.36;46.89;98433.91;4860622;29;20061;-76
2023/07/06 01:53:46;;;;;;;9.73;3.75;;;;;;;25.37;47.06;98435.56;4860863;29;20152;-76
2023/07/06 01:56:18;;;;;;;8.05;3.70;;;;;;;25.32;47.06;98438.06;4860780;29;20050;-76
2023/07/06 01:58:50;;;;;;;17.33;12.40;;;;;;;25.27;47.59;98440.56;4860692;29;20037;-76
2023/07/06 02:01:20;;;;;;;9.25;6.32;;;;;;;25.24;47.53;98431.13;4876272;29;20502;-76
2023/07/06 02:03:46;;;;;;;12.70;8.32;;;;;;;25.28;47.75;98439.53;4921396;29;20118;-76
2023/07/06 02:06:11;;;;;;;20.27;14.57;;;;;;;25.32;47.81;98437.22;4904840;29;20467;-75
2023/07/06 02:08:41;;;;;;;23.67;15.85;;;;;;;25.34;48.07;98435.19;4920934;29;20043;-76
2023/07/06 02:11:19;;;;;;;19.35;13.77;;;;;;;25.36;47.93;98444.59;4906046;29;20036;-76
2023/07/06 02:13:44;;;;;;;20.55;13.57;;;;;;;25.34;48.14;98440.53;4905038;29;20635;-76
2023/07/06 02:16:09;;;;;;;13.55;10.85;;;;;;;25.34;48.25;98452.00;4920087;29;20073;-76
2023/07/06 02:18:35;;;;;;;16.38;9.40;;;;;;;25.32;48.30;98447.91;4920351;29;20035;-76
2023/07/06 02:21:01;;;;;;;10.50;7.30;;;;;;;25.32;48.49;98446.09;4920410;29;20044;-76
2023/07/06 02:23:29;;;;;;;11.38;6.65;;;;;;;25.29;48.48;98446.53;4920319;29;20028;-76
2023/07/06 02:25:54;;;;;;;8.30;5.97;;;;;;;25.33;48.21;98449.56;4904869;29;20062;-75
2023/07/06 02:28:23;;;;;;;6.90;5.35;;;;;;;25.37;48.14;98448.09;4888984;29;20040;-76
2023/07/06 02:30:49;;;;;;;8.40;4.90;;;;;;;25.36;48.13;98452.59;4937040;29;20031;-76
2023/07/06 02:33:19;;;;;;;7.88;4.55;;;;;;;25.38;47.70;98452.38;4920125;29;20040;-75
2023/07/06 02:35:47;;;;;;;12.75;4.55;;;;;;;25.39;47.96;98449.50;4920514;29;20411;-76
2023/07/06 02:38:18;;;;;;;7.07;4.60;;;;;;;25.35;47.66;98447.47;4920644;29;20027;-76
2023/07/06 02:40:44;;;;;;;9.75;4.45;;;;;;;25.35;47.90;98451.00;4920801;29;20480;-76
2023/07/06 02:43:09;;;;;;;7.43;4.28;;;;;;;25.34;48.04;98445.88;4903437;29;20043;-76
2023/07/06 02:45:35;;;;;;;5.90;4.20;;;;;;;25.36;47.85;98438.44;4904135;29;20090;-78
2023/07/06 02:48:01;;;;;;;8.45;4.10;;;;;;;25.36;47.84;98438.44;4935793;29;20032;-75
2023/07/06 02:50:27;;;;;;;6.93;3.53;;;;;;;25.37;48.00;98437.41;4904056;29;20068;-76
2023/07/06 02:52:53;;;;;;;8.70;3.92;;;;;;;25.41;48.09;98439.44;4919825;29;20031;-76
2023/07/06 02:55:18;;;;;;;9.00;3.72;;;;;;;25.45;47.58;98440.59;4934980;29;20114;-76
2023/07/06 02:57:44;;;;;;;6.03;3.50;;;;;;;25.45;47.54;98437.13;4904268;29;20075;-75
2023/07/06 03:00:12;;;;;;;6.10;3.55;;;;;;;25.44;47.71;98436.31;4888325;29;20419;-75
2023/07/06 03:02:38;;;;;;;9.70;3.35;;;;;;;25.44;47.91;98430.97;4920216;29;20475;-76
2023/07/06 03:05:04;;;;;;;7.22;3.72;;;;;;;25.50;47.63;98429.25;4920071;29;20051;-76
2023/07/06 03:07:33;;;;;;;6.88;3.30;;;;;;;25.53;47.17;98430.69;4919757;29;20054;-76
2023/07/06 03:10:00;;;;;;;6.32;3.22;;;;;;;25.75;46.93;98428.38;4904647;29;20543;-76
2023/07/06 03:12:25;;;;;;;5.03;3.40;;;;;;;25.98;46.29;98433.06;4919421;29;20487;-76
2023/07/06 03:14:51;;;;;;;5.13;3.20;;;;;;;26.01;45.81;98432.63;4888059;29;20051;-76
2023/07/06 03:17:16;;;;;;;3.70;2.55;;;;;;;26.02;45.53;98430.78;4919537;29;20024;-76
2023/07/06 03:19:42;;;;;;;9.75;2.80;;;;;;;26.15;44.77;98423.38;4919143;29;20071;-76
2023/07/06 03:22:08;;;;;;;5.25;2.70;;;;;;;26.64;43.78;98422.50;4903454;29;20098;-76
2023/07/06 03:24:33;;;;;;;5.35;2.55;;;;;;;27.02;42.34;98434.72;4903529;29;20036;-76
2023/07/06 03:27:01;;;;;;;5.75;2.20;;;;;;;27.31;41.67;98438.38;4903003;29;20130;-76
2023/07/06 03:29:26;;;;;;;6.70;2.50;;;;;;;27.37;41.17;98439.31;4919543;29;20039;-76
2023/07/06 03:31:52;;;;;;;3.28;2.20;;;;;;;27.25;41.22;98445.44;4934989;29;20050;-76
2023/07/06 03:34:19;;;;;;;6.63;2.38;;;;;;;27.24;41.14;98449.16;4934764;29;20059;-77
2023/07/06 03:36:44;;;;;;;5.63;2.07;;;;;;;27.11;41.60;98444.03;4919278;29;20562;-68
2023/07/06 03:39:12;;;;;;;8.18;2.13;;;;;;;27.15;41.88;98439.03;4935905;29;20168;-69
2023/07/06 03:41:38;;;;;;;14.02;2.50;;;;;;;27.49;41.68;98434.75;4903430;29;20480;-67
2023/07/06 03:44:05;;;;;;;10.48;2.28;;;;;;;27.73;41.28;98432.84;4933545;29;20036;-68
2023/07/06 03:46:34;;;;;;;6.40;2.35;;;;;;;28.57;39.51;98433.41;4903291;29;20070;-68
2023/07/06 03:49:08;;;;;;;6.65;2.38;;;;;;;29.33;37.34;98428.50;4934930;29;20055;-68
2023/07/06 03:51:33;;;;;;;8.82;2.35;;;;;;;29.94;36.10;98425.03;4918951;29;20046;-73
2023/07/06 03:53:59;;;;;;;3.75;2.00;;;;;;;30.64;34.97;98420.66;4917848;29;20487;-72
2023/07/06 03:56:27;;;;;;;4.03;2.13;;;;;;;31.30;33.94;98418.75;4934093;29;20083;-73
2023/07/06 03:58:56;;;;;;;4.72;2.05;;;;;;;31.98;32.56;98418.03;4919248;29;20027;-72
2023/07/06 04:01:22;;;;;;;3.88;1.77;;;;;;;32.70;31.35;98418.19;4919162;29;20059;-72
2023/07/06 04:03:47;;;;;;;3.85;2.20;;;;;;;33.29;30.07;98412.22;4933689;29;20043;-73
2023/07/06 04:06:13;;;;;;;4.93;1.75;;;;;;;33.91;29.58;98422.06;4918466;29;20043;-78
2023/07/06 04:08:39;;;;;;;4.78;1.95;;;;;;;34.43;28.95;98416.09;4918674;29;20052;-76
2023/07/06 04:11:04;;;;;;;3.63;1.90;;;;;;;34.94;28.47;98408.69;4930021;29;20036;-75
2023/07/06 04:13:30;;;;;;;5.95;1.80;;;;;;;35.46;27.63;98434.22;4899670;29;20500;-77
2023/07/06 04:15:55;;;;;;;5.03;1.48;;;;;;;35.91;27.05;98420.41;4899698;29;20071;-80
2023/07/06 04:18:21;;;;;;;2.60;1.60;;;;;;;36.37;26.18;98422.53;4899546;29;20114;-80
2023/07/06 04:20:48;;;;;;;4.65;1.83;;;;;;;36.84;25.43;98424.53;4899706;29;20110;-79
2023/07/06 04:23:13;;;;;;;3.22;1.58;;;;;;;37.21;25.29;98412.78;4883489;29;20488;-79
2023/07/06 04:25:39;;;;;;;4.55;1.77;;;;;;;37.70;24.98;98435.00;4899473;29;20047;-79
2023/07/06 04:28:06;;;;;;;5.07;1.75;;;;;;;38.12;24.20;98429.47;4899248;29;20452;-79
2023/07/06 04:30:35;;;;;;;;;;;;;;;38.46;23.91;98433.63;4899710;29;20040;-80
2023/07/06 04:33:01;;;;;;;4.97;1.65;;;;;;;38.87;23.51;98432.66;4899091;29;20057;-77
2023/07/06 04:35:26;;;;;;;2.97;1.35;;;;;;;39.25;22.92;98441.25;4914828;29;20110;-83
2023/07/06 04:37:52;;;;;;;2.03;1.20;;;;;;;39.62;22.77;98447.38;4900085;29;20126;-82
2023/07/06 04:40:18;;;;;;;3.78;1.30;;;;;;;39.91;22.34;98440.50;4921177;29;20056;-81
2023/07/06 04:42:48;;;;;;;5.55;1.50;;;;;;;40.27;21.91;98446.88;4899010;29;20131;-81
2023/07/06 04:45:17;;;;;;;4.63;1.73;;;;;;;40.70;21.47;98446.88;4899583;29;20051;-81
2023/07/06 04:47:44;;;;;;;2.83;1.60;;;;;;;41.10;21.09;98445.03;4899401;29;20028;-81
2023/07/06 04:50:17;;;;;;;3.53;1.40;;;;;;;41.48;20.86;98447.84;4899198;29;20165;-81
2023/07/06 04:52:44;;;;;;;3.13;1.58;;;;;;;41.91;20.16;98446.03;4900206;29;20103;-81
2023/07/06 04:55:10;;;;;;;2.80;1.50;;;;;;;42.22;19.98;98448.41;4914980;29;20032;-79
2023/07/06 04:57:36;;;;;;;4.90;1.52;;;;;;;42.59;19.45;98456.84;4915713;29;20432;-81
2023/07/06 05:00:12;;;;;;;4.50;1.50;;;;;;;42.83;19.36;98447.88;4898779;29;20032;-80
2023/07/06 05:02:37;;;;;;;3.10;1.42;;;;;;;43.22;18.70;98453.13;4914600;29;20488;-78
2023/07/06 05:05:03;;;;;;;6.13;1.57;;;;;;;43.53;18.75;98460.84;4900130;29;20051;-77
2023/07/06 05:07:30;;;;;;;6.47;1.83;;;;;;;43.80;17.68;98468.78;4902881;29;20032;-80
2023/07/06 05:09:56;;;;;;;4.20;1.40;;;;;;;44.09;17.53;98460.28;4918642;29;20107;-79
2023/07/06 05:12:21;;;;;;;2.40;1.50;;;;;;;44.42;17.52;98464.78;4918471;29;20036;-84
2023/07/06 05:14:47;;;;;;;3.40;1.60;;;;;;;44.76;17.48;98472.81;4918186;29;20121;-86
2023/07/06 05:17:13;;;;;;;4.27;1.60;;;;;;;45.04;16.61;98472.00;4902977;29;20067;-86
2023/07/06 05:19:38;;;;;;;5.50;1.50;;;;;;;45.33;16.94;98465.25;4903306;29;20036;-87
2023/07/06 05:22:04;;;;;;;5.87;1.60;;;;;;;45.59;16.96;98467.47;4902460;29;20067;-86
2023/07/06 05:24:30;;;;;;;2.80;1.65;;;;;;;45.89;16.67;98477.25;4886965;29;20059;-84
2023/07/06 05:26:55;;;;;;;3.03;1.40;;;;;;;46.14;16.56;98470.31;4918134;29;20456;-85
2023/07/06 05:29:21;;;;;;;1.77;1.17;;;;;;;46.38;15.77;98474.00;4919780;29;20044;-84
2023/07/06 05:31:46;;;;;;;7.33;1.90;;;;;;;46.60;15.77;98466.97;4919155;29;20118;-83
2023/07/06 05:34:12;;;;;;;7.57;5.50;;;;;;;46.83;15.92;98475.31;4917766;29;20035;-84
2023/07/06 05:36:38;;;;;;;8.20;6.03;;;;;;;47.03;15.48;98475.28;4918457;29;20036;-80
2023/07/06 05:39:06;;;;;;;6.53;5.10;;;;;;;47.19;15.21;98469.63;4917804;29;20036;-76
2023/07/06 05:41:31;;;;;;;6.55;5.63;;;;;;;47.33;15.40;98474.63;4902074;29;20074;-80
2023/07/06 05:43:57;;;;;;;6.25;5.43;;;;;;;47.42;15.10;98470.44;4901835;29;20060;-77
2023/07/06 05:46:26;;;;;;;7.53;4.97;;;;;;;47.56;15.30;98475.41;4918667;29;20055;-79
2023/07/06 05:48:53;;;;;;;5.03;4.35;;;;;;;47.71;15.00;98467.34;4918168;29;20067;-76
2023/07/06 05:51:19;;;;;;;7.53;4.03;;;;;;;47.81;15.10;98472.25;4902193;29;20112;-77
2023/07/06 05:53:45;;;;;;;5.95;3.45;;;;;;;47.90;15.19;98470.00;4917496;29;20071;-77
2023/07/06 05:56:11;;;;;;;8.55;3.30;;;;;;;47.99;15.11;98478.81;4901879;29;20030;-85
2023/07/06 05:58:37;;;;;;;7.73;3.03;;;;;;;47.98;13.63;98474.47;4901961;29;20460;-83
2023/07/06 06:01:03;;;;;;;;;;;;;;;47.89;14.16;98475.91;4919086;29;20276;-80
2023/07/06 06:03:29;;;;;;;6.93;2.58;;;;;;;48.01;14.50;98479.25;4901924;29;19970;-69
2023/07/06 06:05:56;;;;;;;5.40;1.60;;;;;;;48.39;11.56;98468.28;4918989;29;20063;-71
2023/07/06 06:08:22;;;;;;;3.55;1.92;;;;;;;48.71;13.19;98476.16;4901840;29;20074;-71
2023/07/06 06:10:51;;;;;;;5.65;1.83;;;;;;;48.98;12.95;98479.66;4901947;29;20115;-70
2023/07/06 06:13:18;;;;;;;6.70;1.90;;;;;;;49.15;13.00;98478.25;4917540;29;20131;-71
2023/07/06 06:15:43;;;;;;;;;;;;;;;48.76;12.37;98473.09;4902431;29;20047;-70
2023/07/06 06:18:09;;;;;;;6.23;1.70;;;;;;;49.03;12.76;98472.97;4900778;29;19911;-71
2023/07/06 06:20:37;;;;;;;6.30;2.10;;;;;;;49.14;13.20;98481.41;4917349;29;20035;-72
2023/07/06 06:23:03;;;;;;;4.18;1.85;;;;;;;49.27;12.85;98482.72;4900716;29;20040;-73
2023/07/06 06:25:29;;;;;;;6.40;2.05;;;;;;;49.27;12.38;98476.38;4901403;29;20064;-74
2023/07/06 06:27:54;;;;;;;5.73;2.70;;;;;;;49.25;13.04;98474.78;4918284;29;20074;-71
2023/07/06 06:30:20;;;;;;;5.13;1.67;;;;;;;49.17;11.36;98461.22;4901568;29;20036;-70
2023/07/06 06:32:45;;;;;;;4.93;3.17;;;;;;;48.97;12.25;98474.50;4917037;29;20028;-73
2023/07/06 06:35:31;;;;;;;8.30;2.93;;;;;;;48.92;12.87;98472.06;4918308;29;20068;-71
2023/07/06 06:37:57;;;;;;;6.45;2.70;;;;;;;48.98;12.96;98470.53;4902264;29;20312;-77
2023/07/06 06:40:23;;;;;;;3.72;2.50;;;;;;;48.90;13.54;98473.25;4901597;29;20066;-73
2023/07/06 06:42:49;;;;;;;4.63;2.45;;;;;;;48.90;13.41;98470.47;4918253;29;20044;-70
2023/07/06 06:45:15;;;;;;;5.67;2.00;;;;;;;48.90;13.57;98455.81;4901517;29;20052;-69
2023/07/06 06:47:41;;;;;;;6.35;2.28;;;;;;;48.86;13.73;98460.53;4901238;29;20264;-70
2023/07/06 06:50:09;;;;;;;6.85;2.05;;;;;;;48.79;13.79;98466.81;4885472;29;20071;-68
2023/07/06 06:52:35;;;;;;;4.40;1.80;;;;;;;48.73;13.76;98466.31;4900925;29;20488;-71
2023/07/06 06:55:01;;;;;;;3.25;1.90;;;;;;;48.70;13.91;98463.53;4900472;29;20578;-69
2023/07/06 06:57:27;;;;;;;4.30;1.80;;;;;;;48.61;14.06;98469.34;4885281;29;20056;-70
2023/07/06 06:59:53;;;;;;;4.40;1.77;;;;;;;48.54;14.12;98470.06;4916774;29;20072;-71
2023/07/06 07:02:19;;;;;;;9.68;1.95;;;;;;;48.18;13.83;98468.81;4917766;29;20032;-75
2023/07/06 07:04:45;;;;;;;10.35;2.03;;;;;;;47.68;14.40;98473.63;4900516;29;20047;-77
2023/07/06 07:07:10;;;;;;;5.13;1.80;;;;;;;47.44;14.88;98470.06;4901095;29;20032;-76
2023/07/06 07:09:36;;;;;;;4.93;1.70;;;;;;;47.31;15.15;98475.00;4916232;29;20055;-77
2023/07/06 07:12:02;;;;;;;3.97;1.50;;;;;;;47.17;15.06;98458.16;4900444;29;20503;-83
2023/07/06 07:14:29;;;;;;;6.50;2.10;;;;;;;46.76;13.05;98459.41;4900398;29;20036;-75
2023/07/06 07:16:55;;;;;;;8.32;2.00;;;;;;;46.60;14.59;98469.72;4916395;29;20287;-73
2023/07/06 07:19:21;;;;;;;6.03;1.90;;;;;;;46.49;15.10;98461.22;4917246;29;20036;-73
2023/07/06 07:21:47;;;;;;;6.15;1.98;;;;;;;46.43;15.00;98467.38;4900300;29;20036;-72
2023/07/06 07:24:14;;;;;;;3.08;1.67;;;;;;;46.32;15.53;98465.22;4900316;29;20032;-74
2023/07/06 07:26:39;;;;;;;4.63;1.73;;;;;;;46.30;15.86;98466.75;4900354;29;20456;-73
2023/07/06 07:29:06;;;;;;;3.90;1.80;;;;;;;46.19;15.62;98472.81;4916003;29;20040;-83
2023/07/06 07:31:31;;;;;;;3.63;1.50;;;;;;;46.10;16.21;98474.16;4900012;29;20443;-83
2023/07/06 07:33:57;;;;;;;4.97;1.87;;;;;;;46.02;16.00;98476.78;4914694;29;20048;-81
2023/07/06 07:36:22;;;;;;;2.40;1.57;;;;;;;45.92;16.10;98468.25;4931732;29;20186;-79
2023/07/06 07:38:48;;;;;;;5.33;1.80;;;;;;;45.81;16.12;98468.81;4918142;29;20039;-80
2023/07/06 07:41:18;;;;;;;3.13;1.65;;;;;;;45.71;16.25;98474.06;4917995;29;20052;-79
2023/07/06 07:43:46;;;;;;;4.70;1.90;;;;;;;45.60;16.43;98474.59;4918094;29;20574;-79
2023/07/06 07:46:12;;;;;;;4.50;1.80;;;;;;;45.49;16.85;98471.59;4917610;29;20059;-80
2023/07/06 07:48:46;;;;;;;4.10;1.75;;;;;;;45.41;17.09;98471.78;4917753;29;20024;-80
2023/07/06 07:51:19;;;;;;;3.95;1.75;;;;;;;45.38;17.59;98466.97;4909385;29;20047;-83
2023/07/06 07:53:45;;;;;;;4.93;1.80;;;;;;;45.31;16.83;98470.31;4921660;29;20023;-80
2023/07/06 07:56:12;;;;;;;4.20;1.80;;;;;;;45.23;16.77;98466.59;4919231;29;20040;-79
2023/07/06 07:58:39;;;;;;;3.92;1.70;;;;;;;45.14;17.18;98472.28;4902496;29;20140;-82
2023/07/06 08:01:05;;;;;;;5.97;1.88;;;;;;;45.07;17.08;98466.59;4902395;29;20044;-77
2023/07/06 08:03:31;;;;;;;8.18;2.00;;;;;;;45.01;17.15;98473.53;4917869;29;20035;-78
2023/07/06 08:05:59;;;;;;;9.10;1.80;;;;;;;44.78;14.22;98476.00;4933805;29;20098;-81
2023/07/06 08:08:25;;;;;;;9.02;2.00;;;;;;;44.48;15.49;98462.56;4919179;29;20040;-84
2023/07/06 08:10:53;;;;;;;8.95;1.80;;;;;;;44.38;16.21;98469.38;4918395;29;20035;-79
2023/07/06 08:13:20;;;;;;;9.25;1.70;;;;;;;44.31;16.73;98471.13;4918965;29;20114;-79
2023/07/06 08:15:45;;;;;;;7.45;1.70;;;;;;;44.21;16.72;98478.72;4918791;29;20439;-81
2023/07/06 08:18:11;;;;;;;12.57;2.10;;;;;;;44.08;17.28;98474.38;4918807;29;20046;-79
2023/07/06 08:20:37;;;;;;;4.03;1.70;;;;;;;44.02;17.38;98476.53;4919461;29;20422;-81
2023/07/06 08:23:05;;;;;;;6.00;1.70;;;;;;;43.98;17.88;98474.81;4918562;29;20083;-79
2023/07/06 08:25:37;;;;;;;4.20;1.65;;;;;;;43.92;18.03;98468.78;4919053;29;20394;-82
2023/07/06 08:28:12;;;;;;;4.70;1.80;;;;;;;43.86;18.54;98459.16;4916522;29;20550;-83
2023/07/06 08:30:40;;;;;;;3.78;1.88;;;;;;;43.85;18.57;98472.09;4902557;29;20510;-84
2023/07/06 08:33:07;;;;;;;4.68;1.85;;;;;;;43.80;18.96;98466.84;4901940;29;20046;-86
2023/07/06 08:35:32;;;;;;;5.82;1.70;;;;;;;43.73;18.90;98461.88;4919809;29;20047;-85
2023/07/06 08:38:03;;;;;;;6.70;1.80;;;;;;;43.69;18.75;98460.97;4902205;29;20039;-84
2023/07/06 08:40:30;;;;;;;5.10;1.60;;;;;;;43.62;18.93;98466.25;4919096;29;20039;-87
2023/07/06 08:42:56;;;;;;;4.47;1.70;;;;;;;43.52;19.02;98461.19;4918097;29;20495;-87
2023/07/06 08:45:38;;;;;;;10.02;2.00;;;;;;;43.45;19.28;98459.03;4902992;29;20052;-86
2023/07/06 08:48:05;;;;;;;6.78;1.80;;;;;;;43.42;19.30;98461.66;4903964;29;20395;-86
2023/07/06 08:50:32;;;;;;;4.40;1.90;;;;;;;43.35;19.15;98459.47;4886767;29;20103;-86
2023/07/06 08:52:58;;;;;;;3.00;1.70;;;;;;;43.32;19.38;98460.16;4918740;29;20036;-87
2023/07/06 08:55:24;;;;;;;4.70;1.70;;;;;;;43.20;19.81;98449.94;4918990;29;20040;-85
2023/07/06 08:57:50;;;;;;;2.97;1.45;;;;;;;43.13;19.63;98456.00;4903112;29;20046;-86
2023/07/06 09:00:22;;;;;;;5.50;1.90;;;;;;;43.07;19.99;98462.84;4903245;29;20126;-86
2023/07/06 09:02:48;;;;;;;7.18;1.80;;;;;;;42.99;20.05;98461.00;4903089;29;20054;-85
2023/07/06 09:05:15;;;;;;;;;;;;;;;42.92;20.12;98467.03;4902892;29;20042;-86
2023/07/06 09:07:42;;;;;;;3.60;1.80;;;;;;;42.80;20.41;98467.78;4918016;29;19915;-86
2023/07/06 09:10:28;;;;;;;;;;;;;;;42.74;20.21;98471.06;4902951;29;20475;-85
2023/07/06 09:12:54;;;;;;;;;;;;;;;42.56;20.05;98465.75;4935395;29;19915;-87
2023/07/06 09:15:24;;;;;;;4.82;1.75;;;;;;;42.44;19.81;98471.16;4935293;29;19966;-86
2023/07/06 09:17:50;;;;;;;4.47;1.70;;;;;;;42.27;19.93;98461.09;4902904;29;20040;-87
2023/07/06 09:20:17;;;;;;;3.37;1.60;;;;;;;42.10;19.80;98465.56;4918437;29;20044;-86
2023/07/06 09:22:43;;;;;;;6.88;1.90;;;;;;;41.92;20.69;98461.31;4903405;29;20032;-86
2023/07/06 09:25:27;;;;;;;3.90;1.83;;;;;;;41.70;20.48;98460.47;4918713;29;20143;-86
2023/07/06 09:27:55;;;;;;;5.80;1.70;;;;;;;41.60;20.37;98455.34;4904261;29;20032;-88
2023/07/06 09:30:30;;;;;;;4.68;1.80;;;;;;;41.46;20.35;98458.31;4901975;29;20048;-87
2023/07/06 09:33:05;;;;;;;4.10;1.92;;;;;;;41.32;20.43;98457.72;4918131;29;20548;-88
2023/07/06 09:35:31;;;;;;;4.45;1.77;;;;;;;41.19;20.80;98454.03;4902569;29;20032;-86
2023/07/06 09:37:57;;;;;;;2.88;1.70;;;;;;;41.14;21.26;98454.22;4917948;29;20400;-86
2023/07/06 09:40:28;;;;;;;4.67;1.80;;;;;;;41.03;21.13;98453.78;4918080;29;20035;-86
2023/07/06 09:42:53;;;;;;;6.68;1.83;;;;;;;40.98;21.15;98452.00;4902412;29;20035;-87
2023/07/06 09:45:21;;;;;;;3.10;1.75;;;;;;;40.93;21.04;98454.09;4901838;29;20447;-84
2023/07/06 09:47:49;;;;;;;3.80;1.88;;;;;;;40.72;20.40;98449.28;4917626;29;20027;-87
2023/07/06 09:50:20;;;;;;;4.25;2.10;;;;;;;40.55;20.58;98452.84;4902703;29;20035;-86
2023/07/06 09:52:46;;;;;;;5.50;1.80;;;;;;;40.47;20.98;98442.69;4905966;29;20052;-86
2023/07/06 09:55:15;;;;;;;4.07;1.90;;;;;;;40.40;20.79;98451.38;4890508;29;20460;-89
2023/07/06 09:57:40;;;;;;;5.90;2.00;;;;;;;40.22;21.00;98455.25;4921730;29;20479;-87
2023/07/06 10:00:15;;;;;;;5.63;1.95;;;;;;;40.13;21.27;98441.56;4921631;29;20091;-87
2023/07/06 10:02:56;;;;;;;4.45;1.95;;;;;;;40.02;21.21;98443.78;4921458;29;20131;-85
2023/07/06 10:05:34;;;;;;;6.13;1.95;;;;;;;39.82;21.07;98444.34;4921438;29;20055;-85
2023/07/06 10:08:11;;;;;;;3.55;1.90;;;;;;;39.61;21.32;98429.34;4938226;29;20550;-86
2023/07/06 10:10:52;;;;;;;4.68;2.00;;;;;;;39.41;21.15;98435.34;4938194;29;20038;-87
2023/07/06 10:13:17;;;;;;;3.47;2.08;;;;;;;39.25;21.37;98434.97;4939021;29;20032;-87
2023/07/06 10:15:51;;;;;;;5.82;2.00;;;;;;;39.07;21.79;98426.69;4920743;29;20114;-87
2023/07/06 10:18:40;;;;;;;5.05;2.10;;;;;;;38.88;22.23;98423.38;4921807;29;20042;-86
2023/07/06 10:21:27;;;;;;;3.15;1.92;;;;;;;38.79;22.41;98419.78;4905362;29;20035;-86
2023/07/06 10:23:55;;;;;;;5.10;1.98;;;;;;;38.78;22.45;98424.44;4920722;29;20032;-86
2023/07/06 10:26:28;;;;;;;2.90;1.77;;;;;;;38.67;22.80;98418.41;4920666;29;20436;-85
2023/07/06 10:28:59;;;;;;;7.10;2.05;;;;;;;38.54;22.90;98417.34;4905642;29;20032;-87
2023/07/06 10:31:28;;;;;;;4.25;2.10;;;;;;;38.46;23.38;98406.34;4905108;29;20054;-85
2023/07/06 10:33:57;;;;;;;5.55;1.90;;;;;;;38.39;23.42;98411.47;4904906;29;20030;-84
2023/07/06 10:36:22;;;;;;;6.28;2.08;;;;;;;38.34;23.71;98407.72;4904478;29;20036;-85
2023/07/06 10:38:49;;;;;;;4.90;1.98;;;;;;;38.19;23.79;98391.72;4904505;29;20035;-85
2023/07/06 10:41:18;;;;;;;5.85;1.90;;;;;;;38.19;23.55;98402.63;4936284;29;20541;-85
2023/07/06 10:43:43;;;;;;;6.80;2.20;;;;;;;38.07;23.75;98394.97;4919908;29;20050;-86
2023/07/06 10:46:35;;;;;;;6.18;2.38;;;;;;;38.01;24.00;98401.63;4904278;29;20056;-85
2023/07/06 10:49:33;;;;;;;3.47;2.38;;;;;;;37.88;24.02;98392.38;4919970;29;20525;-85
2023/07/06 10:51:58;;;;;;;6.00;2.30;;;;;;;37.81;23.97;98397.44;4844442;29;20052;-85
2023/07/06 10:54:25;;;;;;;3.80;2.30;;;;;;;37.75;24.44;98393.22;4829126;29;20057;-86
2023/07/06 10:57:01;;;;;;;3.58;2.38;;;;;;;37.68;24.57;98385.44;4844536;29;20183;-86
2023/07/06 10:59:49;;;;;;;4.68;2.45;;;;;;;37.62;25.21;98379.28;4830513;29;20038;-86
2023/07/06 11:02:24;;;;;;;3.70;2.65;;;;;;;37.58;25.28;98374.75;4829690;29;20124;-87
2023/07/06 11:05:13;;;;;;;4.18;3.05;;;;;;;37.54;25.44;98377.25;4829001;29;20628;-87
2023/07/06 11:08:05;;;;;;;3.83;3.03;;;;;;;37.51;25.83;98374.34;4859729;29;20054;-86
2023/07/06 11:10:39;;;;;;;4.38;2.80;;;;;;;37.43;24.96;98376.69;4791046;29;20070;-86
2023/07/06 11:13:04;;;;;;;5.53;2.40;;;;;;;37.36;25.12;98375.47;4789775;29;20404;-87
2023/07/06 11:15:38;;;;;;;3.97;3.08;;;;;;;37.28;25.45;98366.09;4789972;29;20055;-88
2023/07/06 11:18:24;;;;;;;7.10;3.15;;;;;;;37.19;25.61;98365.97;4806633;29;20168;-88
2023/07/06 11:20:52;;;;;;;6.88;3.55;;;;;;;37.15;25.83;98361.41;4790438;29;20054;-87
2023/07/06 11:23:21;;;;;;;6.50;3.80;;;;;;;37.11;26.36;98362.00;4789875;29;20035;-88
2023/07/06 11:25:47;;;;;;;8.02;3.97;;;;;;;37.13;26.35;98361.72;4790268;29;20119;-86
2023/07/06 11:28:14;;;;;;;4.40;3.77;;;;;;;37.07;26.49;98352.88;4831760;29;20043;-86
2023/07/06 11:31:06;;;;;;;6.28;3.50;;;;;;;37.00;26.10;98352.44;4844452;29;20211;-87
2023/07/06 11:33:43;;;;;;;6.03;3.53;;;;;;;37.00;26.23;98357.09;4844253;29;20459;-87
2023/07/06 11:36:22;;;;;;;4.13;3.35;;;;;;;36.99;26.61;98347.28;4844186;29;20077;-88
2023/07/06 11:39:31;;;;;;;7.60;3.65;;;;;;;36.94;26.87;98345.47;4857110;29;20113;-89
2023/07/06 11:41:59;;;;;;;7.25;3.75;;;;;;;36.91;26.81;98346.06;4818445;29;20076;-85